sensor_id;sensor_type;location;lat;lon;timestamp;temperature;humidity
18047;DHT22;9148;51.454;13.862;2024-01-10T00:01:43;-10.10;99.90
18047;DHT22;9148;51.454;13.862;2024-01-10T00:04:09;-10.10;99.90
18047;DHT22;9148;51.454;13.862;2024-01-10T00:06:35;-10.10;99.90
18047;DHT22;9148;51.454;13.862;2024-01-10T00:09:00;-10.30;99.90
18047;DHT22;9148;51.454;13.862;2024-01-10T00:11:26;-10.10;99.90
18047;DHT22;9148;51.454;13.862;2024-01-10T00:13:51;-10.30;99.90
18047;DHT22;9148;51.454;13.862;2024-01-10T00:16:17;-10.30;99.90
18047;DHT22;9148;51.454;13.862;2024-01-10T00:18:43;-9.70;99.90
18047;DHT22;9148;51.454;13.862;2024-01-10T00:21:10;-10.10;99.90
18047;DHT22;9148;51.454;13.862;2024-01-10T00:23:35;-10.00;99.90
18047;DHT22;9148;51.454;13.862;2024-01-10T00:26:01;-9.40;99.90
18047;DHT22;9148;51.454;13.862;2024-01-10T00:28:27;-10.10;99.90
18047;DHT22;9148;51.454;13.862;2024-01-10T00:30:52;-9.60;99.90
18047;DHT22;9148;51.454;13.862;2024-01-10T00:33:18;-10.30;99.90
18047;DHT22;9148;51.454;13.862;2024-01-10T00:35:44;-10.10;99.90
18047;DHT22;9148;51.454;13.862;2024-01-10T00:38:10;-9.90;99.90
18047;DHT22;9148;51.454;13.862;2024-01-10T00:40:36;-10.10;99.90
18047;DHT22;9148;51.454;13.862;2024-01-10T00:43:02;-10.00;99.90
18047;DHT22;9148;51.454;13.862;2024-01-10T00:45:29;-10.00;99.90
18047;DHT22;9148;51.454;13.862;2024-01-10T00:47:54;-9.00;99.90
18047;DHT22;9148;51.454;13.862;2024-01-10T00:50:20;-9.40;99.90
18047;DHT22;9148;51.454;13.862;2024-01-10T00:52:46;-9.40;99.90
18047;DHT22;9148;51.454;13.862;2024-01-10T00:55:12;-9.60;99.90
18047;DHT22;9148;51.454;13.862;2024-01-10T00:57:38;-9.90;99.90
18047;DHT22;9148;51.454;13.862;2024-01-10T01:00:06;-10.00;99.90
18047;DHT22;9148;51.454;13.862;2024-01-10T01:02:32;-10.00;99.90
18047;DHT22;9148;51.454;13.862;2024-01-10T01:04:58;-9.90;99.90
18047;DHT22;9148;51.454;13.862;2024-01-10T01:07:23;-10.00;99.90
18047;DHT22;9148;51.454;13.862;2024-01-10T01:09:49;-10.00;99.90
18047;DHT22;9148;51.454;13.862;2024-01-10T01:12:15;-9.90;99.90
18047;DHT22;9148;51.454;13.862;2024-01-10T01:14:41;-9.90;99.90
18047;DHT22;9148;51.454;13.862;2024-01-10T01:17:06;-9.90;99.90
18047;DHT22;9148;51.454;13.862;2024-01-10T01:19:32;-9.50;99.90
18047;DHT22;9148;51.454;13.862;2024-01-10T01:21:58;-9.40;99.90
18047;DHT22;9148;51.454;13.862;2024-01-10T01:24:24;-9.30;99.90
18047;DHT22;9148;51.454;13.862;2024-01-10T01:26:49;-10.00;99.90
18047;DHT22;9148;51.454;13.862;2024-01-10T01:29:15;-10.30;99.90
18047;DHT22;9148;51.454;13.862;2024-01-10T01:31:41;-10.00;99.90
18047;DHT22;9148;51.454;13.862;2024-01-10T01:34:07;-9.80;99.90
18047;DHT22;9148;51.454;13.862;2024-01-10T01:36:33;-9.40;99.90
18047;DHT22;9148;51.454;13.862;2024-01-10T01:38:59;-10.20;99.90
18047;DHT22;9148;51.454;13.862;2024-01-10T01:41:25;-10.00;99.90
18047;DHT22;9148;51.454;13.862;2024-01-10T01:43:50;-10.40;99.90
18047;DHT22;9148;51.454;13.862;2024-01-10T01:46:16;-10.50;99.90
18047;DHT22;9148;51.454;13.862;2024-01-10T01:48:42;-10.30;99.90
18047;DHT22;9148;51.454;13.862;2024-01-10T01:51:08;-10.30;99.90
18047;DHT22;9148;51.454;13.862;2024-01-10T01:53:37;-9.60;99.90
18047;DHT22;9148;51.454;13.862;2024-01-10T01:56:06;-10.40;99.90
18047;DHT22;9148;51.454;13.862;2024-01-10T01:58:33;-10.30;99.90
18047;DHT22;9148;51.454;13.862;2024-01-10T02:01:02;-10.40;99.90
18047;DHT22;9148;51.454;13.862;2024-01-10T02:03:30;-10.40;99.90
18047;DHT22;9148;51.454;13.862;2024-01-10T02:05:57;-10.40;99.90
18047;DHT22;9148;51.454;13.862;2024-01-10T02:08:23;-10.40;99.90
18047;DHT22;9148;51.454;13.862;2024-01-10T02:10:49;-10.40;99.90
18047;DHT22;9148;51.454;13.862;2024-01-10T02:13:15;-10.40;99.90
18047;DHT22;9148;51.454;13.862;2024-01-10T02:15:41;-10.50;99.90
18047;DHT22;9148;51.454;13.862;2024-01-10T02:18:07;-10.40;99.90
18047;DHT22;9148;51.454;13.862;2024-01-10T02:20:33;-10.40;99.90
18047;DHT22;9148;51.454;13.862;2024-01-10T02:22:58;-10.30;99.90
18047;DHT22;9148;51.454;13.862;2024-01-10T02:25:24;-9.60;99.90
18047;DHT22;9148;51.454;13.862;2024-01-10T02:27:50;-10.40;99.90
18047;DHT22;9148;51.454;13.862;2024-01-10T02:30:15;-10.30;99.90
18047;DHT22;9148;51.454;13.862;2024-01-10T02:32:41;-10.30;99.90
18047;DHT22;9148;51.454;13.862;2024-01-10T02:35:07;-10.40;99.90
18047;DHT22;9148;51.454;13.862;2024-01-10T02:37:33;-10.30;99.90
18047;DHT22;9148;51.454;13.862;2024-01-10T02:39:59;-10.30;99.90
18047;DHT22;9148;51.454;13.862;2024-01-10T02:42:26;-10.40;99.90
18047;DHT22;9148;51.454;13.862;2024-01-10T02:44:52;-10.40;99.90
18047;DHT22;9148;51.454;13.862;2024-01-10T02:47:18;-10.30;99.90
18047;DHT22;9148;51.454;13.862;2024-01-10T02:49:44;-10.40;99.90
18047;DHT22;9148;51.454;13.862;2024-01-10T02:52:09;-9.80;99.90
18047;DHT22;9148;51.454;13.862;2024-01-10T02:54:35;-10.30;99.90
18047;DHT22;9148;51.454;13.862;2024-01-10T02:57:00;-10.60;99.90
18047;DHT22;9148;51.454;13.862;2024-01-10T02:59:26;-9.70;99.90
18047;DHT22;9148;51.454;13.862;2024-01-10T03:01:52;-10.50;99.90
18047;DHT22;9148;51.454;13.862;2024-01-10T03:04:18;-10.70;99.90
18047;DHT22;9148;51.454;13.862;2024-01-10T03:06:43;-10.40;99.90
18047;DHT22;9148;51.454;13.862;2024-01-10T03:09:09;-10.60;99.90
18047;DHT22;9148;51.454;13.862;2024-01-10T03:11:35;-10.60;99.90
18047;DHT22;9148;51.454;13.862;2024-01-10T03:14:03;-10.20;99.90
18047;DHT22;9148;51.454;13.862;2024-01-10T03:16:30;-10.40;99.90
18047;DHT22;9148;51.454;13.862;2024-01-10T03:18:56;-10.50;99.90
18047;DHT22;9148;51.454;13.862;2024-01-10T03:21:21;-10.60;99.90
18047;DHT22;9148;51.454;13.862;2024-01-10T03:23:57;-10.60;99.90
18047;DHT22;9148;51.454;13.862;2024-01-10T03:26:24;-10.50;99.90
18047;DHT22;9148;51.454;13.862;2024-01-10T03:28:51;-10.50;99.90
18047;DHT22;9148;51.454;13.862;2024-01-10T03:31:17;-10.40;99.90
18047;DHT22;9148;51.454;13.862;2024-01-10T03:33:43;-10.50;99.90
18047;DHT22;9148;51.454;13.862;2024-01-10T03:36:12;-10.50;99.90
18047;DHT22;9148;51.454;13.862;2024-01-10T03:38:39;-10.50;99.90
18047;DHT22;9148;51.454;13.862;2024-01-10T03:41:05;-10.50;99.90
18047;DHT22;9148;51.454;13.862;2024-01-10T03:43:30;-10.60;99.90
18047;DHT22;9148;51.454;13.862;2024-01-10T03:45:57;-10.60;99.90
18047;DHT22;9148;51.454;13.862;2024-01-10T03:48:23;-10.00;99.90
18047;DHT22;9148;51.454;13.862;2024-01-10T03:50:49;-10.60;99.90
18047;DHT22;9148;51.454;13.862;2024-01-10T03:53:14;-10.60;99.90
18047;DHT22;9148;51.454;13.862;2024-01-10T03:55:40;-10.60;99.90
18047;DHT22;9148;51.454;13.862;2024-01-10T03:58:06;-10.70;99.90
18047;DHT22;9148;51.454;13.862;2024-01-10T04:00:32;-10.70;99.90
18047;DHT22;9148;51.454;13.862;2024-01-10T04:02:58;-10.70;99.90
18047;DHT22;9148;51.454;13.862;2024-01-10T04:05:23;-10.70;99.90
18047;DHT22;9148;51.454;13.862;2024-01-10T04:07:51;-10.80;99.90
18047;DHT22;9148;51.454;13.862;2024-01-10T04:10:17;-10.80;99.90
18047;DHT22;9148;51.454;13.862;2024-01-10T04:12:46;-10.70;99.90
18047;DHT22;9148;51.454;13.862;2024-01-10T04:15:12;-10.80;99.90
18047;DHT22;9148;51.454;13.862;2024-01-10T04:17:38;-10.80;99.90
18047;DHT22;9148;51.454;13.862;2024-01-10T04:20:04;-10.20;99.90
18047;DHT22;9148;51.454;13.862;2024-01-10T04:22:31;-10.80;99.90
18047;DHT22;9148;51.454;13.862;2024-01-10T04:24:58;-10.70;99.90
18047;DHT22;9148;51.454;13.862;2024-01-10T04:27:26;-10.70;99.90
18047;DHT22;9148;51.454;13.862;2024-01-10T04:29:52;-10.80;99.90
18047;DHT22;9148;51.454;13.862;2024-01-10T04:32:18;-10.70;99.90
18047;DHT22;9148;51.454;13.862;2024-01-10T04:34:44;-10.70;99.90
18047;DHT22;9148;51.454;13.862;2024-01-10T04:37:10;-10.90;99.90
18047;DHT22;9148;51.454;13.862;2024-01-10T04:39:35;-10.70;99.90
18047;DHT22;9148;51.454;13.862;2024-01-10T04:42:03;-10.70;99.90
18047;DHT22;9148;51.454;13.862;2024-01-10T04:44:29;-10.80;99.90
18047;DHT22;9148;51.454;13.862;2024-01-10T04:46:55;-10.70;99.90
18047;DHT22;9148;51.454;13.862;2024-01-10T04:49:21;-10.70;99.90
18047;DHT22;9148;51.454;13.862;2024-01-10T04:51:46;-10.50;99.90
18047;DHT22;9148;51.454;13.862;2024-01-10T04:54:13;-10.70;99.90
18047;DHT22;9148;51.454;13.862;2024-01-10T04:56:39;-9.70;99.90
18047;DHT22;9148;51.454;13.862;2024-01-10T04:59:05;-10.70;99.90
18047;DHT22;9148;51.454;13.862;2024-01-10T05:01:31;-10.60;99.90
18047;DHT22;9148;51.454;13.862;2024-01-10T05:03:57;-10.20;99.90
18047;DHT22;9148;51.454;13.862;2024-01-10T05:06:23;-10.70;99.90
18047;DHT22;9148;51.454;13.862;2024-01-10T05:08:49;-10.20;99.90
18047;DHT22;9148;51.454;13.862;2024-01-10T05:11:15;-10.70;99.90
18047;DHT22;9148;51.454;13.862;2024-01-10T05:13:44;-10.60;99.90
18047;DHT22;9148;51.454;13.862;2024-01-10T05:16:10;-10.60;99.90
18047;DHT22;9148;51.454;13.862;2024-01-10T05:18:35;-10.70;99.90
18047;DHT22;9148;51.454;13.862;2024-01-10T05:21:02;-10.80;99.90
18047;DHT22;9148;51.454;13.862;2024-01-10T05:23:29;-10.60;99.90
18047;DHT22;9148;51.454;13.862;2024-01-10T05:25:55;-10.70;99.90
18047;DHT22;9148;51.454;13.862;2024-01-10T05:28:20;-9.70;99.90
18047;DHT22;9148;51.454;13.862;2024-01-10T05:30:46;-10.70;99.90
18047;DHT22;9148;51.454;13.862;2024-01-10T05:33:12;-11.30;99.90
18047;DHT22;9148;51.454;13.862;2024-01-10T05:35:38;-10.70;99.90
18047;DHT22;9148;51.454;13.862;2024-01-10T05:38:04;-10.70;99.90
18047;DHT22;9148;51.454;13.862;2024-01-10T05:40:30;-10.80;99.90
18047;DHT22;9148;51.454;13.862;2024-01-10T05:42:57;-10.70;99.90
18047;DHT22;9148;51.454;13.862;2024-01-10T05:45:25;-10.80;99.90
18047;DHT22;9148;51.454;13.862;2024-01-10T05:47:51;-10.90;99.90
18047;DHT22;9148;51.454;13.862;2024-01-10T05:50:16;-10.80;99.90
18047;DHT22;9148;51.454;13.862;2024-01-10T05:52:42;-10.90;99.90
18047;DHT22;9148;51.454;13.862;2024-01-10T05:55:09;-10.80;99.90
18047;DHT22;9148;51.454;13.862;2024-01-10T05:57:36;-10.90;99.90
18047;DHT22;9148;51.454;13.862;2024-01-10T06:00:03;-10.90;99.90
18047;DHT22;9148;51.454;13.862;2024-01-10T06:02:30;-10.80;99.90
18047;DHT22;9148;51.454;13.862;2024-01-10T06:04:56;-9.80;99.90
18047;DHT22;9148;51.454;13.862;2024-01-10T06:07:21;-10.90;99.90
18047;DHT22;9148;51.454;13.862;2024-01-10T06:09:47;-10.90;99.90
18047;DHT22;9148;51.454;13.862;2024-01-10T06:12:13;-10.90;99.90
18047;DHT22;9148;51.454;13.862;2024-01-10T06:14:39;-10.90;99.90
18047;DHT22;9148;51.454;13.862;2024-01-10T06:17:05;-11.00;99.90
18047;DHT22;9148;51.454;13.862;2024-01-10T06:19:31;-10.90;99.90
18047;DHT22;9148;51.454;13.862;2024-01-10T06:21:57;-10.80;99.90
18047;DHT22;9148;51.454;13.862;2024-01-10T06:24:24;-10.90;99.90
18047;DHT22;9148;51.454;13.862;2024-01-10T06:26:49;-10.80;99.90
18047;DHT22;9148;51.454;13.862;2024-01-10T06:29:15;-10.30;99.90
18047;DHT22;9148;51.454;13.862;2024-01-10T06:31:41;-10.80;99.90
18047;DHT22;9148;51.454;13.862;2024-01-10T06:34:08;-10.50;99.90
18047;DHT22;9148;51.454;13.862;2024-01-10T06:36:34;-10.90;99.90
18047;DHT22;9148;51.454;13.862;2024-01-10T06:39:00;-10.90;99.90
18047;DHT22;9148;51.454;13.862;2024-01-10T06:41:25;-10.90;99.90
18047;DHT22;9148;51.454;13.862;2024-01-10T06:43:52;-10.20;99.90
18047;DHT22;9148;51.454;13.862;2024-01-10T06:46:18;-10.90;99.90
18047;DHT22;9148;51.454;13.862;2024-01-10T06:48:44;-10.90;99.90
18047;DHT22;9148;51.454;13.862;2024-01-10T06:51:11;-10.90;99.90
18047;DHT22;9148;51.454;13.862;2024-01-10T06:53:38;-10.90;99.90
18047;DHT22;9148;51.454;13.862;2024-01-10T06:56:04;-11.00;99.90
18047;DHT22;9148;51.454;13.862;2024-01-10T06:58:31;-11.10;99.90
18047;DHT22;9148;51.454;13.862;2024-01-10T07:01:02;-11.10;99.90
18047;DHT22;9148;51.454;13.862;2024-01-10T07:03:31;-10.70;99.90
18047;DHT22;9148;51.454;13.862;2024-01-10T07:05:57;-11.00;99.90
18047;DHT22;9148;51.454;13.862;2024-01-10T07:08:25;-11.00;99.90
18047;DHT22;9148;51.454;13.862;2024-01-10T07:10:51;-11.10;99.90
18047;DHT22;9148;51.454;13.862;2024-01-10T07:13:17;-10.60;99.90
18047;DHT22;9148;51.454;13.862;2024-01-10T07:15:42;-11.10;99.90
18047;DHT22;9148;51.454;13.862;2024-01-10T07:18:08;-11.20;99.90
18047;DHT22;9148;51.454;13.862;2024-01-10T07:20:36;-10.40;99.90
18047;DHT22;9148;51.454;13.862;2024-01-10T07:23:03;-11.20;99.90
18047;DHT22;9148;51.454;13.862;2024-01-10T07:25:28;-11.00;99.90
18047;DHT22;9148;51.454;13.862;2024-01-10T07:27:54;-11.20;99.90
18047;DHT22;9148;51.454;13.862;2024-01-10T07:30:20;-11.20;99.90
18047;DHT22;9148;51.454;13.862;2024-01-10T07:32:46;-10.50;99.90
18047;DHT22;9148;51.454;13.862;2024-01-10T07:35:12;-11.00;99.90
18047;DHT22;9148;51.454;13.862;2024-01-10T07:37:41;-10.90;99.90
18047;DHT22;9148;51.454;13.862;2024-01-10T07:40:10;-10.90;99.90
18047;DHT22;9148;51.454;13.862;2024-01-10T07:42:37;-10.60;99.90
18047;DHT22;9148;51.454;13.862;2024-01-10T07:45:03;-10.40;99.90
18047;DHT22;9148;51.454;13.862;2024-01-10T07:47:33;-9.80;99.90
18047;DHT22;9148;51.454;13.862;2024-01-10T07:50:12;-10.00;99.90
18047;DHT22;9148;51.454;13.862;2024-01-10T07:52:40;-8.80;99.90
18047;DHT22;9148;51.454;13.862;2024-01-10T07:55:06;-9.60;99.90
18047;DHT22;9148;51.454;13.862;2024-01-10T07:57:33;-9.20;99.90
18047;DHT22;9148;51.454;13.862;2024-01-10T08:00:03;-9.20;99.90
18047;DHT22;9148;51.454;13.862;2024-01-10T08:02:29;-8.90;99.90
18047;DHT22;9148;51.454;13.862;2024-01-10T08:05:00;-7.90;99.90
18047;DHT22;9148;51.454;13.862;2024-01-10T08:07:26;-8.50;99.90
18047;DHT22;9148;51.454;13.862;2024-01-10T08:09:52;-7.70;99.90
18047;DHT22;9148;51.454;13.862;2024-01-10T08:12:17;-7.80;99.90
18047;DHT22;9148;51.454;13.862;2024-01-10T08:14:44;-7.40;99.90
18047;DHT22;9148;51.454;13.862;2024-01-10T08:17:11;-7.60;99.90
18047;DHT22;9148;51.454;13.862;2024-01-10T08:19:37;-7.50;99.90
18047;DHT22;9148;51.454;13.862;2024-01-10T08:22:03;-6.30;99.90
18047;DHT22;9148;51.454;13.862;2024-01-10T08:24:28;-7.20;99.90
18047;DHT22;9148;51.454;13.862;2024-01-10T08:26:54;-7.10;99.90
18047;DHT22;9148;51.454;13.862;2024-01-10T08:29:20;-6.90;99.90
18047;DHT22;9148;51.454;13.862;2024-01-10T08:31:47;-6.70;99.90
18047;DHT22;9148;51.454;13.862;2024-01-10T08:34:13;-6.40;99.90
18047;DHT22;9148;51.454;13.862;2024-01-10T08:36:39;-6.10;99.90
18047;DHT22;9148;51.454;13.862;2024-01-10T08:39:05;-5.60;99.90
18047;DHT22;9148;51.454;13.862;2024-01-10T08:41:32;-5.90;99.90
18047;DHT22;9148;51.454;13.862;2024-01-10T08:43:58;-5.80;99.90
18047;DHT22;9148;51.454;13.862;2024-01-10T08:46:25;-5.80;99.90
18047;DHT22;9148;51.454;13.862;2024-01-10T08:48:50;-5.70;99.90
18047;DHT22;9148;51.454;13.862;2024-01-10T08:51:16;-5.60;99.90
18047;DHT22;9148;51.454;13.862;2024-01-10T08:53:43;-5.60;99.90
18047;DHT22;9148;51.454;13.862;2024-01-10T08:56:09;-5.40;99.90
18047;DHT22;9148;51.454;13.862;2024-01-10T08:58:35;-5.10;99.90
18047;DHT22;9148;51.454;13.862;2024-01-10T09:01:02;-4.90;99.90
18047;DHT22;9148;51.454;13.862;2024-01-10T09:03:29;-4.50;99.90
18047;DHT22;9148;51.454;13.862;2024-01-10T09:05:55;-4.40;99.90
18047;DHT22;9148;51.454;13.862;2024-01-10T09:08:22;-4.20;99.90
18047;DHT22;9148;51.454;13.862;2024-01-10T09:10:47;-4.10;99.90
18047;DHT22;9148;51.454;13.862;2024-01-10T09:13:14;-4.00;99.90
18047;DHT22;9148;51.454;13.862;2024-01-10T09:15:41;-3.80;99.90
18047;DHT22;9148;51.454;13.862;2024-01-10T09:18:06;-3.70;99.90
18047;DHT22;9148;51.454;13.862;2024-01-10T09:20:32;-3.60;99.90
18047;DHT22;9148;51.454;13.862;2024-01-10T09:22:58;-3.40;99.90
18047;DHT22;9148;51.454;13.862;2024-01-10T09:25:25;-3.40;99.90
18047;DHT22;9148;51.454;13.862;2024-01-10T09:27:51;-3.20;99.90
18047;DHT22;9148;51.454;13.862;2024-01-10T09:30:17;-3.10;99.90
18047;DHT22;9148;51.454;13.862;2024-01-10T09:32:43;-3.10;99.90
18047;DHT22;9148;51.454;13.862;2024-01-10T09:35:10;-2.80;99.90
18047;DHT22;9148;51.454;13.862;2024-01-10T09:37:36;-2.60;99.90
18047;DHT22;9148;51.454;13.862;2024-01-10T09:40:02;-2.60;99.90
18047;DHT22;9148;51.454;13.862;2024-01-10T09:42:29;-2.50;99.90
18047;DHT22;9148;51.454;13.862;2024-01-10T09:44:57;-2.40;99.90
18047;DHT22;9148;51.454;13.862;2024-01-10T09:47:23;-2.30;99.90
18047;DHT22;9148;51.454;13.862;2024-01-10T09:49:50;-2.20;99.90
18047;DHT22;9148;51.454;13.862;2024-01-10T09:52:28;-1.90;99.60
18047;DHT22;9148;51.454;13.862;2024-01-10T09:54:56;-1.90;99.30
18047;DHT22;9148;51.454;13.862;2024-01-10T09:57:23;-1.70;99.40
18047;DHT22;9148;51.454;13.862;2024-01-10T09:59:51;-1.50;99.30
18047;DHT22;9148;51.454;13.862;2024-01-10T10:02:20;-1.30;99.20
18047;DHT22;9148;51.454;13.862;2024-01-10T10:04:56;-1.10;98.60
18047;DHT22;9148;51.454;13.862;2024-01-10T10:07:47;-0.80;98.80
18047;DHT22;9148;51.454;13.862;2024-01-10T10:10:14;-0.50;98.50
18047;DHT22;9148;51.454;13.862;2024-01-10T10:12:45;-0.30;97.80
18047;DHT22;9148;51.454;13.862;2024-01-10T10:15:13;-0.10;96.50
18047;DHT22;9148;51.454;13.862;2024-01-10T10:17:40;0.00;96.70
18047;DHT22;9148;51.454;13.862;2024-01-10T10:20:24;0.10;96.10
18047;DHT22;9148;51.454;13.862;2024-01-10T10:23:22;0.40;94.60
18047;DHT22;9148;51.454;13.862;2024-01-10T10:25:48;0.30;95.20
18047;DHT22;9148;51.454;13.862;2024-01-10T10:28:13;0.30;95.20
18047;DHT22;9148;51.454;13.862;2024-01-10T10:30:40;0.50;95.40
18047;DHT22;9148;51.454;13.862;2024-01-10T10:33:06;0.60;95.10
18047;DHT22;9148;51.454;13.862;2024-01-10T10:35:34;0.80;94.80
18047;DHT22;9148;51.454;13.862;2024-01-10T10:38:00;1.10;95.30
18047;DHT22;9148;51.454;13.862;2024-01-10T10:40:26;1.10;95.20
18047;DHT22;9148;51.454;13.862;2024-01-10T10:42:56;1.40;95.40
18047;DHT22;9148;51.454;13.862;2024-01-10T10:45:22;1.80;94.90
18047;DHT22;9148;51.454;13.862;2024-01-10T10:47:57;2.00;94.00
18047;DHT22;9148;51.454;13.862;2024-01-10T10:50:24;2.00;93.70
18047;DHT22;9148;51.454;13.862;2024-01-10T10:52:51;2.00;93.70
18047;DHT22;9148;51.454;13.862;2024-01-10T10:55:18;1.30;92.90
18047;DHT22;9148;51.454;13.862;2024-01-10T10:57:48;2.40;92.40
18047;DHT22;9148;51.454;13.862;2024-01-10T11:00:15;3.30;92.30
18047;DHT22;9148;51.454;13.862;2024-01-10T11:02:44;2.50;92.10
18047;DHT22;9148;51.454;13.862;2024-01-10T11:05:10;2.60;92.20
18047;DHT22;9148;51.454;13.862;2024-01-10T11:07:38;2.60;92.20
18047;DHT22;9148;51.454;13.862;2024-01-10T11:10:08;3.60;92.20
18047;DHT22;9148;51.454;13.862;2024-01-10T11:12:54;3.00;91.50
18047;DHT22;9148;51.454;13.862;2024-01-10T11:24:57;3.00;86.60
18047;DHT22;9148;51.454;13.862;2024-01-10T11:27:23;3.00;87.80
18047;DHT22;9148;51.454;13.862;2024-01-10T11:29:48;3.00;87.70
18047;DHT22;9148;51.454;13.862;2024-01-10T11:32:19;3.00;87.90
18047;DHT22;9148;51.454;13.862;2024-01-10T11:34:54;3.10;87.40
18047;DHT22;9148;51.454;13.862;2024-01-10T11:37:22;3.10;87.20
18047;DHT22;9148;51.454;13.862;2024-01-10T11:39:50;3.20;87.10
18047;DHT22;9148;51.454;13.862;2024-01-10T11:42:42;3.30;86.50
18047;DHT22;9148;51.454;13.862;2024-01-10T11:45:08;3.50;85.90
18047;DHT22;9148;51.454;13.862;2024-01-10T11:47:34;3.60;88.20
18047;DHT22;9148;51.454;13.862;2024-01-10T11:50:02;3.80;87.80
18047;DHT22;9148;51.454;13.862;2024-01-10T11:52:33;4.10;86.20
18047;DHT22;9148;51.454;13.862;2024-01-10T11:55:00;4.30;86.60
18047;DHT22;9148;51.454;13.862;2024-01-10T11:57:28;4.40;85.80
18047;DHT22;9148;51.454;13.862;2024-01-10T11:59:55;4.70;85.70
18047;DHT22;9148;51.454;13.862;2024-01-10T12:02:22;5.60;86.20
18047;DHT22;9148;51.454;13.862;2024-01-10T12:04:50;5.00;85.20
18047;DHT22;9148;51.454;13.862;2024-01-10T12:07:17;5.20;82.80
18047;DHT22;9148;51.454;13.862;2024-01-10T12:09:43;5.30;80.60
18047;DHT22;9148;51.454;13.862;2024-01-10T12:12:09;6.10;80.60
18047;DHT22;9148;51.454;13.862;2024-01-10T12:14:36;5.00;79.20
18047;DHT22;9148;51.454;13.862;2024-01-10T12:17:02;5.10;79.30
18047;DHT22;9148;51.454;13.862;2024-01-10T12:19:29;5.20;78.00
18047;DHT22;9148;51.454;13.862;2024-01-10T12:21:55;5.20;77.70
18047;DHT22;9148;51.454;13.862;2024-01-10T12:24:21;6.30;76.40
18047;DHT22;9148;51.454;13.862;2024-01-10T12:26:48;5.30;75.60
18047;DHT22;9148;51.454;13.862;2024-01-10T12:29:18;5.20;72.70
18047;DHT22;9148;51.454;13.862;2024-01-10T12:31:46;5.30;74.10
18047;DHT22;9148;51.454;13.862;2024-01-10T12:34:11;5.80;75.60
18047;DHT22;9148;51.454;13.862;2024-01-10T12:36:37;5.10;75.80
18047;DHT22;9148;51.454;13.862;2024-01-10T12:39:03;6.00;77.00
18047;DHT22;9148;51.454;13.862;2024-01-10T12:41:33;5.40;75.50
18047;DHT22;9148;51.454;13.862;2024-01-10T12:44:00;5.40;75.40
18047;DHT22;9148;51.454;13.862;2024-01-10T12:46:29;6.30;74.20
18047;DHT22;9148;51.454;13.862;2024-01-10T12:49:03;5.30;73.30
18047;DHT22;9148;51.454;13.862;2024-01-10T12:51:34;5.30;73.00
18047;DHT22;9148;51.454;13.862;2024-01-10T12:54:02;5.30;73.30
18047;DHT22;9148;51.454;13.862;2024-01-10T12:56:29;6.40;74.20
18047;DHT22;9148;51.454;13.862;2024-01-10T12:58:56;6.30;74.30
18047;DHT22;9148;51.454;13.862;2024-01-10T13:01:23;6.50;73.70
18047;DHT22;9148;51.454;13.862;2024-01-10T13:03:49;6.50;74.30
18047;DHT22;9148;51.454;13.862;2024-01-10T13:06:15;5.40;71.90
18047;DHT22;9148;51.454;13.862;2024-01-10T13:08:42;5.70;71.00
18047;DHT22;9148;51.454;13.862;2024-01-10T13:11:08;6.10;71.70
18047;DHT22;9148;51.454;13.862;2024-01-10T13:13:38;5.50;71.50
18047;DHT22;9148;51.454;13.862;2024-01-10T13:16:04;5.40;72.20
18047;DHT22;9148;51.454;13.862;2024-01-10T13:18:30;4.80;72.00
18047;DHT22;9148;51.454;13.862;2024-01-10T13:20:56;4.90;71.60
18047;DHT22;9148;51.454;13.862;2024-01-10T13:23:22;4.90;70.50
18047;DHT22;9148;51.454;13.862;2024-01-10T13:25:52;4.80;70.60
18047;DHT22;9148;51.454;13.862;2024-01-10T13:28:18;5.30;70.60
18047;DHT22;9148;51.454;13.862;2024-01-10T13:30:44;5.60;70.60
18047;DHT22;9148;51.454;13.862;2024-01-10T13:33:10;4.50;70.10
18047;DHT22;9148;51.454;13.862;2024-01-10T13:35:36;4.40;71.20
18047;DHT22;9148;51.454;13.862;2024-01-10T13:38:03;4.40;71.20
18047;DHT22;9148;51.454;13.862;2024-01-10T13:40:29;4.30;71.30
18047;DHT22;9148;51.454;13.862;2024-01-10T13:42:54;4.50;71.40
18047;DHT22;9148;51.454;13.862;2024-01-10T13:45:20;4.50;71.00
18047;DHT22;9148;51.454;13.862;2024-01-10T13:47:46;4.50;70.90
18047;DHT22;9148;51.454;13.862;2024-01-10T13:50:14;4.30;70.30
18047;DHT22;9148;51.454;13.862;2024-01-10T13:52:40;4.30;69.80
18047;DHT22;9148;51.454;13.862;2024-01-10T13:55:06;4.10;70.40
18047;DHT22;9148;51.454;13.862;2024-01-10T13:57:32;4.70;70.30
18047;DHT22;9148;51.454;13.862;2024-01-10T13:59:59;4.00;70.50
18047;DHT22;9148;51.454;13.862;2024-01-10T14:02:25;3.80;71.20
18047;DHT22;9148;51.454;13.862;2024-01-10T14:04:52;3.70;70.80
18047;DHT22;9148;51.454;13.862;2024-01-10T14:07:19;3.60;70.90
18047;DHT22;9148;51.454;13.862;2024-01-10T14:09:45;3.60;71.20
18047;DHT22;9148;51.454;13.862;2024-01-10T14:12:12;3.50;70.20
18047;DHT22;9148;51.454;13.862;2024-01-10T14:14:38;3.30;70.90
18047;DHT22;9148;51.454;13.862;2024-01-10T14:17:04;3.10;70.50
18047;DHT22;9148;51.454;13.862;2024-01-10T14:19:30;2.90;71.20
18047;DHT22;9148;51.454;13.862;2024-01-10T14:21:57;2.70;71.10
18047;DHT22;9148;51.454;13.862;2024-01-10T14:24:23;2.60;72.20
18047;DHT22;9148;51.454;13.862;2024-01-10T14:26:50;2.40;72.40
18047;DHT22;9148;51.454;13.862;2024-01-10T14:29:15;1.90;73.00
18047;DHT22;9148;51.454;13.862;2024-01-10T14:31:41;1.80;73.80
18047;DHT22;9148;51.454;13.862;2024-01-10T14:34:07;1.50;74.30
18047;DHT22;9148;51.454;13.862;2024-01-10T14:36:33;1.20;75.00
18047;DHT22;9148;51.454;13.862;2024-01-10T14:38:59;0.90;75.50
18047;DHT22;9148;51.454;13.862;2024-01-10T14:41:24;0.70;76.40
18047;DHT22;9148;51.454;13.862;2024-01-10T14:43:50;0.20;77.10
18047;DHT22;9148;51.454;13.862;2024-01-10T14:46:16;0.70;78.50
18047;DHT22;9148;51.454;13.862;2024-01-10T14:48:41;-0.30;78.60
18047;DHT22;9148;51.454;13.862;2024-01-10T14:51:07;-0.60;79.20
18047;DHT22;9148;51.454;13.862;2024-01-10T14:53:33;-0.70;80.20
18047;DHT22;9148;51.454;13.862;2024-01-10T14:56:00;-0.90;81.00
18047;DHT22;9148;51.454;13.862;2024-01-10T14:58:26;-1.00;81.60
18047;DHT22;9148;51.454;13.862;2024-01-10T15:00:52;-1.20;82.00
18047;DHT22;9148;51.454;13.862;2024-01-10T15:03:18;-1.40;82.50
18047;DHT22;9148;51.454;13.862;2024-01-10T15:05:43;-1.50;83.10
18047;DHT22;9148;51.454;13.862;2024-01-10T15:08:11;-1.70;83.30
18047;DHT22;9148;51.454;13.862;2024-01-10T15:10:37;-1.70;84.30
18047;DHT22;9148;51.454;13.862;2024-01-10T15:13:11;-2.10;84.80
18047;DHT22;9148;51.454;13.862;2024-01-10T15:15:38;-1.90;84.10
18047;DHT22;9148;51.454;13.862;2024-01-10T15:18:05;-1.30;86.40
18047;DHT22;9148;51.454;13.862;2024-01-10T15:20:30;-2.10;86.40
18047;DHT22;9148;51.454;13.862;2024-01-10T15:22:56;-2.30;86.50
18047;DHT22;9148;51.454;13.862;2024-01-10T15:25:23;-2.30;87.20
18047;DHT22;9148;51.454;13.862;2024-01-10T15:27:52;-2.40;87.70
18047;DHT22;9148;51.454;13.862;2024-01-10T15:30:18;-2.60;86.60
18047;DHT22;9148;51.454;13.862;2024-01-10T15:32:44;-2.60;89.00
18047;DHT22;9148;51.454;13.862;2024-01-10T15:35:15;-2.60;89.90